Time;durP1;ratioP1;P1;durP2;ratioP2;P2;SDS_P1;SDS_P2;PMS_P1;PMS_P2;Temp;Humidity;BMP_temperature;BMP_pressure;BME280_temperature;BME280_humidity;BME280_pressure;Samples;Min_cycle;Max_cycle;Signal;HPM_P1;HPM_P2
2020/12/26 00:01:17;;;;;;;9.43;6.20;;;0.30;88.50;;;;;;4887953;29;20527;-67
2020/12/26 00:03:43;;;;;;;10.40;5.27;;;0.20;88.30;;;;;;4900151;23;20716;-66
2020/12/26 00:06:16;;;;;;;7.33;5.10;;;0.20;88.30;;;;;;4892586;29;20225;-66
2020/12/26 00:08:43;;;;;;;6.23;5.43;;;0.20;88.30;;;;;;4892180;23;20247;-66
2020/12/26 00:11:10;;;;;;;11.03;6.73;;;0.10;88.20;;;;;;4899378;23;20291;-66
2020/12/26 00:13:38;;;;;;;8.47;4.97;;;0.10;88.40;;;;;;4893368;29;20200;-66
2020/12/26 00:16:05;;;;;;;7.17;5.23;;;0.00;88.10;;;;;;4890345;29;20203;-66
2020/12/26 00:18:32;;;;;;;6.77;5.00;;;0.00;88.20;;;;;;4892196;23;20250;-66
2020/12/26 00:20:58;;;;;;;6.93;4.57;;;0.00;88.40;;;;;;4902762;23;20347;-67
2020/12/26 00:23:24;;;;;;;8.40;5.03;;;;;;;;;;4897476;23;20322;-66
2020/12/26 00:25:50;;;;;;;11.53;5.90;;;0.10;89.10;;;;;;4908219;23;20327;-66
2020/12/26 00:28:15;;;;;;;8.07;5.20;;;0.30;88.80;;;;;;4904150;23;20261;-66
2020/12/26 00:30:42;;;;;;;6.10;4.63;;;;;;;;;;4894270;29;20227;-66
2020/12/26 00:33:08;;;;;;;7.97;5.27;;;;;;;;;;4888801;29;20252;-66
2020/12/26 00:35:33;;;;;;;8.87;5.20;;;0.40;90.00;;;;;;4898745;23;20387;-66
2020/12/26 00:37:59;;;;;;;10.23;6.77;;;0.50;89.30;;;;;;4890709;23;20328;-66
2020/12/26 00:40:25;;;;;;;8.83;4.87;;;;;;;;;;4877592;29;20477;-66
2020/12/26 00:42:51;;;;;;;10.13;6.10;;;0.50;88.90;;;;;;4869749;29;20196;-66
2020/12/26 00:45:16;;;;;;;8.20;5.33;;;0.50;88.50;;;;;;4891128;29;20188;-66
2020/12/26 00:47:43;;;;;;;8.53;5.77;;;0.60;88.60;;;;;;4910606;23;20286;-66
2020/12/26 00:50:09;;;;;;;9.30;5.10;;;0.50;88.50;;;;;;4898975;23;20232;-66
2020/12/26 00:52:35;;;;;;;7.87;5.37;;;;;;;;;;4902873;23;20271;-66
2020/12/26 00:55:00;;;;;;;11.17;6.87;;;0.60;89.10;;;;;;4892609;29;20260;-66
2020/12/26 00:57:26;;;;;;;8.07;5.80;;;0.70;88.70;;;;;;4899121;23;20239;-66
2020/12/26 00:59:52;;;;;;;8.00;5.63;;;0.60;87.50;;;;;;4893215;29;20547;-66
2020/12/26 01:02:17;;;;;;;17.40;7.03;;;0.60;87.60;;;;;;4893101;23;20762;-66
2020/12/26 01:04:43;;;;;;;10.17;5.90;;;0.50;87.10;;;;;;4875455;29;20231;-66
2020/12/26 01:07:09;;;;;;;10.63;6.43;;;0.40;87.30;;;;;;4890418;23;20251;-66
2020/12/26 01:09:34;;;;;;;10.23;5.40;;;0.30;87.20;;;;;;4894803;29;20197;-66
2020/12/26 01:12:00;;;;;;;10.97;6.07;;;0.30;88.10;;;;;;4888192;29;20193;-66
2020/12/26 01:14:25;;;;;;;7.90;5.80;;;0.30;88.40;;;;;;4893078;23;20262;-66
2020/12/26 01:16:51;;;;;;;7.20;5.17;;;;;;;;;;4893728;23;20314;-66
2020/12/26 01:19:18;;;;;;;12.40;6.60;;;0.20;88.30;;;;;;4893610;29;20527;-66
2020/12/26 01:21:52;;;;;;;11.93;6.37;;;0.10;88.20;;;;;;4897141;23;20240;-66
2020/12/26 01:24:18;;;;;;;9.70;5.90;;;0.10;88.20;;;;;;4888758;29;20279;-66
2020/12/26 01:26:51;;;;;;;10.00;6.23;;;0.10;88.20;;;;;;4897807;23;20781;-66
2020/12/26 01:29:18;;;;;;;8.60;6.30;;;0.00;88.50;;;;;;4892929;23;20247;-66
2020/12/26 01:31:49;;;;;;;12.27;5.77;;;0.00;88.80;;;;;;4910299;23;20238;-66
2020/12/26 01:34:23;;;;;;;10.17;6.37;;;-0.10;88.50;;;;;;4891226;29;20655;-66
2020/12/26 01:36:50;;;;;;;10.27;4.90;;;-0.10;90.00;;;;;;4890556;29;20189;-66
2020/12/26 01:39:17;;;;;;;12.23;6.63;;;-0.10;90.40;;;;;;4895237;23;20232;-65
2020/12/26 01:41:43;;;;;;;7.23;5.50;;;;;;;;;;4883430;29;20623;-66
2020/12/26 01:44:09;;;;;;;6.70;5.30;;;;;;;;;;4894388;23;20236;-66
2020/12/26 01:46:35;;;;;;;6.83;4.90;;;-0.20;91.30;;;;;;4868926;29;20617;-66
2020/12/26 01:49:01;;;;;;;6.97;4.97;;;-0.30;91.30;;;;;;4888868;24;20462;-66
2020/12/26 01:51:30;;;;;;;9.13;6.40;;;-0.30;91.40;;;;;;4884713;29;20223;-66
2020/12/26 01:53:56;;;;;;;12.47;6.27;;;-0.30;91.50;;;;;;4890060;23;20597;-66
2020/12/26 01:56:22;;;;;;;6.70;5.33;;;;;;;;;;4892950;23;20710;-66
2020/12/26 01:58:48;;;;;;;7.87;6.20;;;-0.40;91.80;;;;;;4889149;29;20223;-66
2020/12/26 02:01:14;;;;;;;6.23;3.97;;;;;;;;;;4896193;23;20275;-66
2020/12/26 02:03:40;;;;;;;6.40;4.17;;;-0.10;92.50;;;;;;4888766;29;20219;-66
2020/12/26 02:06:09;;;;;;;7.83;5.70;;;-0.10;92.30;;;;;;4886096;29;20247;-65
2020/12/26 02:08:36;;;;;;;8.60;5.27;;;0.00;92.10;;;;;;4883939;23;20892;-65
2020/12/26 02:11:05;;;;;;;8.10;5.80;;;0.00;92.10;;;;;;4875041;29;20620;-65
2020/12/26 02:13:32;;;;;;;7.47;4.93;;;0.00;92.60;;;;;;4880367;23;20236;-65
2020/12/26 02:16:09;;;;;;;13.23;6.37;;;0.20;92.50;;;;;;4876125;29;20243;-65
2020/12/26 02:18:35;;;;;;;9.87;6.20;;;0.20;92.30;;;;;;4896701;23;20239;-65
2020/12/26 02:21:02;;;;;;;6.83;5.13;;;0.40;92.10;;;;;;4866574;29;20196;-65
2020/12/26 02:23:28;;;;;;;9.40;5.17;;;0.50;91.50;;;;;;4870637;29;20225;-65
2020/12/26 02:25:56;;;;;;;5.67;5.17;;;0.70;91.40;;;;;;4869889;29;20574;-67
2020/12/26 02:28:22;;;;;;;3.73;2.47;;;1.00;90.00;;;;;;4865099;29;20190;-65
2020/12/26 02:30:48;;;;;;;5.60;4.13;;;;;;;;;;4885226;23;20306;-65
2020/12/26 02:33:15;;;;;;;4.93;3.13;;;1.00;88.60;;;;;;4887273;29;20188;-65
2020/12/26 02:35:44;;;;;;;5.90;5.07;;;1.00;88.40;;;;;;4886888;29;20504;-66
2020/12/26 02:38:09;;;;;;;7.50;4.87;;;1.00;88.30;;;;;;4891297;29;20195;-66
2020/12/26 02:40:35;;;;;;;9.43;5.43;;;1.20;88.00;;;;;;4887108;29;20652;-65
2020/12/26 02:43:00;;;;;;;9.37;4.10;;;1.20;87.60;;;;;;4899161;23;20243;-66
2020/12/26 02:45:26;;;;;;;9.70;5.37;;;1.20;86.80;;;;;;4893164;29;20195;-65
2020/12/26 02:47:51;;;;;;;4.80;3.60;;;1.30;86.30;;;;;;4896773;23;20318;-66
2020/12/26 02:50:17;;;;;;;7.00;2.67;;;1.40;85.50;;;;;;4894415;29;20232;-65
2020/12/26 02:52:43;;;;;;;7.77;4.87;;;1.50;85.10;;;;;;4894864;29;20654;-65
2020/12/26 02:55:08;;;;;;;7.97;5.00;;;1.50;84.80;;;;;;4901292;23;20329;-66
2020/12/26 02:57:34;;;;;;;10.30;5.37;;;;;;;;;;4887196;29;20192;-66
2020/12/26 03:00:00;;;;;;;8.03;5.33;;;1.60;85.20;;;;;;4883364;29;20236;-66
2020/12/26 03:02:25;;;;;;;6.97;4.57;;;1.60;85.00;;;;;;4898801;23;20242;-66
2020/12/26 03:04:51;;;;;;;7.70;5.23;;;1.50;84.20;;;;;;4893414;29;20231;-65
2020/12/26 03:07:17;;;;;;;14.77;5.67;;;;;;;;;;4886284;29;20196;-65
2020/12/26 03:09:43;;;;;;;6.33;5.00;;;;;;;;;;4913901;23;20639;-66
2020/12/26 03:12:08;;;;;;;7.10;5.10;;;1.50;85.50;;;;;;4906820;23;20243;-66
2020/12/26 03:14:34;;;;;;;7.90;5.43;;;;;;;;;;4874094;29;20229;-66
2020/12/26 03:17:00;;;;;;;7.90;4.53;;;;;;;;;;4877247;29;20189;-66
2020/12/26 03:19:26;;;;;;;8.30;4.80;;;;;;;;;;4894954;23;20281;-66
2020/12/26 03:21:52;;;;;;;7.07;5.33;;;1.30;86.10;;;;;;4891152;29;20216;-66
2020/12/26 03:24:18;;;;;;;10.00;4.83;;;;;;;;;;4892687;29;20184;-66
2020/12/26 03:26:44;;;;;;;8.33;5.70;;;;;;;;;;4895098;23;20240;-66
2020/12/26 03:29:09;;;;;;;8.00;4.93;;;;;;;;;;4886340;29;20195;-66
2020/12/26 03:31:35;;;;;;;11.67;5.23;;;;;;;;;;4896319;23;20271;-66
2020/12/26 03:34:01;;;;;;;6.47;3.97;;;1.40;85.50;;;;;;4890075;29;20659;-66
2020/12/26 03:36:27;;;;;;;9.30;4.90;;;;;;;;;;4890466;29;20184;-66
2020/12/26 03:38:53;;;;;;;8.83;5.67;;;;;;;;;;4892736;23;20240;-66
2020/12/26 03:41:19;;;;;;;4.40;3.17;;;1.40;85.60;;;;;;4901167;23;20244;-66
2020/12/26 03:43:45;;;;;;;6.10;4.43;;;;;;;;;;4885959;29;20562;-66
2020/12/26 03:46:11;;;;;;;6.20;4.97;;;;;;;;;;4892887;29;20239;-65
2020/12/26 03:48:37;;;;;;;4.87;2.93;;;;;;;;;;4891022;29;20184;-65
2020/12/26 03:51:02;;;;;;;17.37;6.33;;;1.40;86.10;;;;;;4896893;23;20703;-66
2020/12/26 03:53:31;;;;;;;8.50;4.37;;;1.50;85.50;;;;;;4891905;29;20200;-66
2020/12/26 03:55:57;;;;;;;6.47;3.67;;;1.50;85.50;;;;;;4897258;23;20273;-65
2020/12/26 03:58:22;;;;;;;8.80;4.73;;;1.50;85.30;;;;;;4890505;29;20235;-66
2020/12/26 04:00:48;;;;;;;7.57;4.97;;;1.50;85.80;;;;;;4885584;29;20192;-66
2020/12/26 04:03:14;;;;;;;9.07;5.43;;;;;;;;;;4888355;29;20203;-66
2020/12/26 04:05:39;;;;;;;7.03;5.33;;;1.50;85.50;;;;;;4890718;29;20546;-66
2020/12/26 04:08:05;;;;;;;5.30;4.40;;;1.50;85.50;;;;;;4895296;23;20240;-66
2020/12/26 04:10:30;;;;;;;8.00;4.80;;;1.50;85.50;;;;;;4889132;29;20224;-66
2020/12/26 04:12:56;;;;;;;5.87;4.80;;;1.50;85.80;;;;;;4895752;23;20247;-66
2020/12/26 04:15:21;;;;;;;6.90;4.17;;;1.40;85.40;;;;;;4891816;29;20656;-66
2020/12/26 04:17:47;;;;;;;6.27;4.60;;;1.40;85.40;;;;;;4891913;29;20200;-67
2020/12/26 04:20:13;;;;;;;5.00;3.17;;;1.40;84.50;;;;;;4892043;29;20581;-65
2020/12/26 04:22:39;;;;;;;4.37;3.13;;;1.60;83.10;;;;;;4892437;29;20196;-66
2020/12/26 04:25:05;;;;;;;5.53;3.47;;;;;;;;;;4893530;29;20256;-65
2020/12/26 04:27:31;;;;;;;10.73;4.67;;;;;;;;;;4893436;29;20732;-65
2020/12/26 04:29:56;;;;;;;4.43;3.33;;;1.50;83.60;;;;;;4892090;29;20216;-66
2020/12/26 04:32:22;;;;;;;5.93;3.27;;;;;;;;;;4897889;23;20278;-65
2020/12/26 04:34:48;;;;;;;6.10;3.63;;;;;;;;;;4890619;29;20633;-66
2020/12/26 04:37:14;;;;;;;8.13;5.00;;;;;;;;;;4893760;29;20196;-65
2020/12/26 04:39:41;;;;;;;7.27;4.90;;;1.50;85.10;;;;;;4901548;23;20231;-65
2020/12/26 04:42:07;;;;;;;7.40;4.33;;;1.60;85.10;;;;;;4900953;23;20267;-65
2020/12/26 04:44:33;;;;;;;6.97;5.50;;;1.60;85.20;;;;;;4885726;29;20235;-65
2020/12/26 04:47:05;;;;;;;7.27;5.40;;;1.60;85.00;;;;;;4894521;23;20691;-66
2020/12/26 04:49:33;;;;;;;7.23;4.47;;;1.60;85.10;;;;;;4884613;29;20662;-66
2020/12/26 04:52:03;;;;;;;6.77;4.63;;;1.60;84.80;;;;;;4886050;29;20280;-66
2020/12/26 04:54:33;;;;;;;7.93;4.87;;;1.60;84.90;;;;;;4898011;23;20328;-66
2020/12/26 04:56:59;;;;;;;9.47;4.83;;;1.60;84.30;;;;;;4872111;29;20217;-66
2020/12/26 04:59:24;;;;;;;10.70;5.90;;;1.60;84.20;;;;;;4891266;23;20285;-66
2020/12/26 05:01:51;;;;;;;7.23;4.67;;;1.60;84.20;;;;;;4890195;29;20246;-65
2020/12/26 05:04:17;;;;;;;7.67;4.70;;;1.50;84.50;;;;;;4897985;23;20715;-65
2020/12/26 05:06:51;;;;;;;8.53;4.57;;;1.40;85.00;;;;;;4898497;23;20235;-65
2020/12/26 05:09:18;;;;;;;8.07;3.87;;;1.50;85.50;;;;;;4893418;23;20232;-65
2020/12/26 05:12:00;;;;;;;7.73;4.30;;;1.50;85.60;;;;;;4886696;29;20216;-65
2020/12/26 05:14:29;;;;;;;10.80;5.03;;;1.40;85.70;;;;;;4890876;23;20232;-65
2020/12/26 05:16:55;;;;;;;7.37;4.47;;;;;;;;;;4894436;29;20203;-65
2020/12/26 05:19:21;;;;;;;6.70;4.37;;;1.50;86.10;;;;;;4896460;23;20240;-65
2020/12/26 05:21:51;;;;;;;8.43;4.77;;;1.50;86.00;;;;;;4893787;29;20210;-65
2020/12/26 05:24:21;;;;;;;8.67;4.70;;;1.60;86.50;;;;;;4894379;23;20235;-65
2020/12/26 05:26:48;;;;;;;8.90;4.80;;;1.60;85.90;;;;;;4904368;29;20203;-65
2020/12/26 05:29:15;;;;;;;8.07;4.63;;;1.60;85.60;;;;;;4882261;23;20268;-65
2020/12/26 05:31:59;;;;;;;8.03;5.03;;;1.60;85.60;;;;;;4898154;23;20809;-66
2020/12/26 05:34:39;;;;;;;8.37;5.50;;;1.60;85.50;;;;;;4898119;23;20247;-66
2020/12/26 05:37:06;;;;;;;6.30;4.13;;;;;;;;;;4890560;29;20195;-66
2020/12/26 05:39:33;;;;;;;7.03;4.00;;;1.50;85.00;;;;;;4899759;23;20223;-66
2020/12/26 05:41:59;;;;;;;10.33;5.70;;;1.60;85.30;;;;;;4895363;29;20220;-66
2020/12/26 05:44:32;;;;;;;5.10;3.60;;;1.60;84.20;;;;;;4895842;23;20242;-66
2020/12/26 05:46:59;;;;;;;4.53;3.97;;;1.40;84.70;;;;;;4891127;23;20567;-66
2020/12/26 05:49:25;;;;;;;8.27;5.03;;;;;;;;;;4891988;23;20331;-65
2020/12/26 05:51:53;;;;;;;7.47;4.70;;;1.30;86.00;;;;;;4885069;29;20337;-65
2020/12/26 05:54:19;;;;;;;6.47;4.40;;;1.30;86.50;;;;;;4887762;29;20192;-65
2020/12/26 05:56:45;;;;;;;6.50;4.53;;;1.30;87.00;;;;;;4897200;23;20239;-66
2020/12/26 05:59:24;;;;;;;6.87;4.20;;;1.30;86.70;;;;;;4892786;29;20317;-66
2020/12/26 06:01:50;;;;;;;7.97;4.00;;;1.40;86.70;;;;;;4894367;23;20639;-66
2020/12/26 06:04:20;;;;;;;7.40;4.60;;;1.40;86.90;;;;;;4889344;29;20669;-65
2020/12/26 06:06:50;;;;;;;6.23;4.50;;;1.40;86.20;;;;;;4920049;23;20243;-65
2020/12/26 06:09:18;;;;;;;7.80;5.53;;;1.40;86.40;;;;;;4902886;29;20187;-65
2020/12/26 06:11:45;;;;;;;6.03;4.90;;;1.40;86.60;;;;;;4915638;23;20325;-65
2020/12/26 06:14:16;;;;;;;4.77;3.53;;;1.30;86.50;;;;;;4895026;23;20260;-66
2020/12/26 06:19:11;;;;;;;6.93;5.00;;;1.30;87.00;;;;;;4878438;23;20684;-65
2020/12/26 06:21:37;;;;;;;8.10;6.07;;;1.30;87.20;;;;;;4895183;23;20224;-66
2020/12/26 06:24:03;;;;;;;6.20;4.17;;;1.20;87.10;;;;;;4867401;29;20277;-65
2020/12/26 06:26:34;;;;;;;4.67;3.43;;;1.20;87.50;;;;;;4869115;29;20184;-66
2020/12/26 06:29:03;;;;;;;6.73;5.07;;;1.20;87.80;;;;;;4869853;29;20211;-66
2020/12/26 06:31:29;;;;;;;4.67;3.60;;;1.20;87.70;;;;;;4892824;23;20243;-66
2020/12/26 06:33:55;;;;;;;5.60;4.77;;;1.20;88.00;;;;;;4890632;23;20326;-67
2020/12/26 06:36:21;;;;;;;5.70;3.90;;;1.30;88.20;;;;;;4870338;29;20708;-67
2020/12/26 06:38:47;;;;;;;6.43;4.73;;;;;;;;;;4872538;29;20196;-67
2020/12/26 06:41:17;;;;;;;8.97;4.00;;;1.30;87.10;;;;;;4887865;23;20251;-66
2020/12/26 06:43:53;;;;;;;9.00;3.17;;;1.20;87.70;;;;;;4885335;29;20207;-66
2020/12/26 06:46:21;;;;;;;7.07;4.20;;;1.20;87.60;;;;;;4890579;23;20283;-67
2020/12/26 06:48:51;;;;;;;4.87;2.53;;;1.20;88.40;;;;;;4890338;29;20637;-65
2020/12/26 06:51:30;;;;;;;5.80;4.27;;;1.10;88.80;;;;;;4880772;29;20676;-67
2020/12/26 06:53:58;;;;;;;6.77;4.57;;;1.10;89.10;;;;;;4899938;29;20206;-66
2020/12/26 06:56:33;;;;;;;8.23;3.20;;;1.10;89.10;;;;;;4886157;29;20226;-66
2020/12/26 06:59:05;;;;;;;5.87;4.00;;;1.10;89.10;;;;;;4879701;29;20230;-65
2020/12/26 07:01:32;;;;;;;7.93;4.10;;;1.10;89.10;;;;;;4878655;29;20231;-66
2020/12/26 07:04:17;;;;;;;7.63;5.00;;;1.10;89.10;;;;;;4882492;29;20204;-66
2020/12/26 07:06:50;;;;;;;5.10;3.97;;;1.10;89.10;;;;;;4884310;29;20200;-66
2020/12/26 07:09:18;;;;;;;6.40;4.17;;;1.00;89.00;;;;;;4895196;23;20592;-66
2020/12/26 07:11:50;;;;;;;7.87;4.13;;;1.00;89.00;;;;;;4891628;23;20238;-66
2020/12/26 07:14:33;;;;;;;3.53;3.23;;;1.00;89.90;;;;;;4871978;23;20232;-66
2020/12/26 07:17:03;;;;;;;5.33;3.47;;;1.00;90.10;;;;;;4871530;29;20189;-65
2020/12/26 07:19:42;;;;;;;8.97;5.07;;;1.00;90.10;;;;;;4873303;29;20240;-65
2020/12/26 07:22:20;;;;;;;5.27;3.40;;;1.00;90.10;;;;;;4888138;29;20724;-65
2020/12/26 07:24:49;;;;;;;5.13;3.60;;;1.00;90.20;;;;;;4898071;23;20243;-66
2020/12/26 07:27:38;;;;;;;4.40;3.70;;;0.90;90.50;;;;;;4899234;23;20236;-65
2020/12/26 07:30:15;;;;;;;5.60;4.80;;;0.90;90.50;;;;;;4894594;29;20227;-66
2020/12/26 07:32:43;;;;;;;7.97;5.00;;;0.90;90.50;;;;;;4887934;29;20759;-66
2020/12/26 07:35:15;;;;;;;2.53;1.97;;;0.90;90.90;;;;;;4902192;23;20687;-66
2020/12/26 07:37:45;;;;;;;8.43;3.67;;;0.90;91.10;;;;;;4904676;29;20192;-66
2020/12/26 07:40:37;;;;;;;7.07;4.37;;;0.90;91.10;;;;;;4886842;29;20200;-66
2020/12/26 07:43:05;;;;;;;7.53;4.63;;;0.90;91.00;;;;;;4894333;23;20696;-65
2020/12/26 07:45:32;;;;;;;7.10;4.80;;;0.90;91.00;;;;;;4891483;29;20490;-65
2020/12/26 07:47:59;;;;;;;5.90;4.57;;;0.90;90.90;;;;;;4896968;29;20180;-66
2020/12/26 07:50:27;;;;;;;5.47;4.00;;;0.90;91.00;;;;;;4893077;29;20382;-66
2020/12/26 07:52:55;;;;;;;6.63;3.83;;;0.90;91.20;;;;;;4895718;23;20235;-66
2020/12/26 07:55:21;;;;;;;6.60;4.37;;;0.90;91.20;;;;;;4894188;29;20251;-66
2020/12/26 07:58:00;;;;;;;2.73;2.30;;;0.90;91.20;;;;;;4892822;29;20281;-66
2020/12/26 08:00:27;;;;;;;6.53;3.23;;;0.90;91.20;;;;;;4887266;29;20734;-66
2020/12/26 08:02:57;;;;;;;9.43;4.27;;;0.90;91.50;;;;;;4882937;29;20247;-67
2020/12/26 08:05:25;;;;;;;16.47;3.27;;;0.90;91.30;;;;;;4897641;23;20682;-68
2020/12/26 08:07:51;;;;;;;10.63;5.13;;;0.90;91.20;;;;;;4888361;29;20337;-64
2020/12/26 08:10:17;;;;;;;5.67;3.87;;;0.90;91.20;;;;;;4888336;29;20691;-68
2020/12/26 08:12:57;;;;;;;5.53;4.13;;;0.90;91.40;;;;;;4923913;23;20231;-65
2020/12/26 08:15:25;;;;;;;3.30;3.00;;;1.00;91.30;;;;;;4889243;29;20200;-64
2020/12/26 08:17:54;;;;;;;1.97;1.43;;;0.90;91.20;;;;;;4893072;29;20297;-64
2020/12/26 08:20:24;;;;;;;4.47;3.47;;;1.00;91.30;;;;;;4889883;29;20200;-64
2020/12/26 08:22:50;;;;;;;3.37;2.47;;;1.00;91.40;;;;;;4887694;29;20196;-64
2020/12/26 08:25:20;;;;;;;5.40;3.73;;;1.00;91.40;;;;;;4890703;29;20203;-64
2020/12/26 08:27:46;;;;;;;7.77;4.67;;;1.10;91.40;;;;;;4890865;29;20655;-64
2020/12/26 08:30:18;;;;;;;3.20;2.60;;;1.10;91.20;;;;;;4892239;29;20643;-64
2020/12/26 08:32:55;;;;;;;8.27;4.77;;;1.10;91.30;;;;;;4884526;29;20287;-64
2020/12/26 08:35:21;;;;;;;9.40;4.50;;;;;;;;;;4886671;29;20183;-64
2020/12/26 08:38:21;;;;;;;6.03;4.53;;;1.10;91.30;;;;;;4889165;29;20686;-64
2020/12/26 08:40:54;;;;;;;5.23;4.03;;;1.10;91.30;;;;;;4854062;29;20677;-64
2020/12/26 08:43:20;;;;;;;3.00;2.53;;;;;;;;;;4895357;29;20195;-64
2020/12/26 08:45:45;;;;;;;8.90;4.83;;;1.10;91.30;;;;;;4896740;29;20531;-64
2020/12/26 08:48:22;;;;;;;4.33;3.47;;;1.20;91.40;;;;;;4893856;29;20272;-64
2020/12/26 08:50:55;;;;;;;5.10;3.70;;;1.30;91.40;;;;;;4891540;29;21653;-64
2020/12/26 08:53:22;;;;;;;7.07;3.33;;;1.40;91.10;;;;;;4894976;29;20202;-65
2020/12/26 08:55:53;;;;;;;5.17;4.67;;;1.50;90.70;;;;;;4897470;23;20263;-65
2020/12/26 08:58:30;;;;;;;7.90;4.63;;;1.60;90.30;;;;;;4884398;29;20198;-65
2020/12/26 09:01:01;;;;;;;7.00;4.50;;;1.70;90.30;;;;;;4894877;29;20218;-65
2020/12/26 09:03:29;;;;;;;9.70;4.97;;;1.70;89.60;;;;;;4888898;29;20260;-65
2020/12/26 09:05:56;;;;;;;14.50;4.03;;;;;;;;;;4868987;29;20184;-64
2020/12/26 09:08:35;;;;;;;7.00;4.83;;;1.90;89.70;;;;;;4853328;29;20668;-65
2020/12/26 09:11:09;;;;;;;5.50;4.00;;;1.90;88.60;;;;;;4851361;29;20667;-64
2020/12/26 09:13:49;;;;;;;8.40;4.90;;;2.00;88.70;;;;;;4857076;29;20196;-64
2020/12/26 09:16:15;;;;;;;7.20;4.30;;;2.10;88.70;;;;;;4856719;29;20188;-65
2020/12/26 09:18:45;;;;;;;5.30;3.83;;;2.00;87.90;;;;;;4873611;29;20192;-64
2020/12/26 09:21:25;;;;;;;4.93;4.10;;;2.00;88.50;;;;;;4874556;29;20505;-65
2020/12/26 09:23:54;;;;;;;6.00;4.33;;;2.00;88.80;;;;;;4871149;29;20227;-65
2020/12/26 09:26:28;;;;;;;7.80;4.67;;;2.00;88.70;;;;;;4867450;29;20216;-65
2020/12/26 09:28:55;;;;;;;6.27;4.23;;;2.00;88.50;;;;;;4870902;29;20204;-65
2020/12/26 09:31:34;;;;;;;4.30;2.70;;;2.10;88.30;;;;;;4868275;29;20462;-65
2020/12/26 09:34:02;;;;;;;5.97;4.53;;;2.00;88.70;;;;;;4866898;29;20220;-64
2020/12/26 09:36:28;;;;;;;6.70;4.53;;;2.10;88.20;;;;;;4867607;29;20232;-64
2020/12/26 09:38:54;;;;;;;4.13;3.47;;;2.20;88.00;;;;;;4861573;29;20641;-64
2020/12/26 09:41:22;;;;;;;4.70;4.03;;;2.20;87.40;;;;;;4865955;29;20212;-64
2020/12/26 09:43:50;;;;;;;6.63;3.97;;;2.30;87.10;;;;;;4860859;29;20200;-65
2020/12/26 09:46:16;;;;;;;6.87;3.83;;;2.30;86.40;;;;;;4864398;29;20208;-66
2020/12/26 09:48:43;;;;;;;9.00;4.90;;;2.30;86.70;;;;;;4865736;29;20280;-65
2020/12/26 09:51:20;;;;;;;7.33;5.20;;;2.30;86.20;;;;;;4864967;29;20683;-65
2020/12/26 09:53:46;;;;;;;8.47;5.07;;;2.50;87.40;;;;;;4865692;29;20666;-65
2020/12/26 09:56:12;;;;;;;8.30;4.87;;;2.50;86.40;;;;;;4863245;29;20217;-64
2020/12/26 09:58:43;;;;;;;6.20;4.30;;;2.60;86.20;;;;;;4861109;29;20279;-65
2020/12/26 10:01:17;;;;;;;7.87;4.77;;;2.60;84.10;;;;;;4860794;29;20189;-65
2020/12/26 10:03:43;;;;;;;8.00;4.93;;;2.60;84.20;;;;;;4887268;23;20232;-65
2020/12/26 10:06:18;;;;;;;6.80;4.60;;;2.40;84.90;;;;;;4890417;29;20567;-65
2020/12/26 10:08:45;;;;;;;6.47;3.70;;;2.40;85.40;;;;;;4888429;23;20227;-65
2020/12/26 10:11:19;;;;;;;9.53;6.27;;;2.50;85.50;;;;;;4895133;29;20231;-65
2020/12/26 10:13:45;;;;;;;5.93;3.20;;;2.50;85.10;;;;;;4888338;29;20256;-65
2020/12/26 10:16:12;;;;;;;3.10;2.57;;;2.60;84.70;;;;;;4892190;23;20236;-65
2020/12/26 10:18:38;;;;;;;3.70;2.37;;;;;;;;;;4892742;23;20242;-65
2020/12/26 10:21:04;;;;;;;3.27;2.63;;;;;;;;;;4888581;29;20200;-65
2020/12/26 10:23:30;;;;;;;7.13;4.47;;;2.40;86.30;;;;;;4891761;29;20187;-65
2020/12/26 10:26:06;;;;;;;6.73;3.53;;;2.40;85.80;;;;;;4877692;29;20184;-65
2020/12/26 10:28:32;;;;;;;7.10;4.60;;;2.50;86.40;;;;;;4892076;29;20183;-66
2020/12/26 10:30:59;;;;;;;5.53;4.43;;;2.50;85.00;;;;;;4896339;29;20219;-66
2020/12/26 10:33:25;;;;;;;4.60;3.70;;;2.40;84.60;;;;;;4896291;29;20563;-66
2020/12/26 10:35:51;;;;;;;9.57;5.40;;;;;;;;;;4884584;29;20251;-65
2020/12/26 10:38:17;;;;;;;5.00;4.23;;;;;;;;;;4901616;23;20247;-66
2020/12/26 10:40:43;;;;;;;5.87;4.13;;;;;;;;;;4896475;29;20271;-65
2020/12/26 10:43:08;;;;;;;10.40;4.37;;;2.70;84.60;;;;;;4896404;29;20172;-65
2020/12/26 10:45:34;;;;;;;6.70;4.80;;;2.80;83.90;;;;;;4898304;23;20232;-65
2020/12/26 10:47:59;;;;;;;3.13;2.40;;;2.60;83.30;;;;;;4885540;29;20652;-65
2020/12/26 10:50:25;;;;;;;9.17;4.73;;;2.70;84.00;;;;;;4885745;29;20270;-65
2020/12/26 10:52:51;;;;;;;9.57;4.13;;;2.80;82.70;;;;;;4899258;23;20262;-66
2020/12/26 10:55:17;;;;;;;2.77;2.37;;;2.80;82.70;;;;;;4887627;29;20188;-66
2020/12/26 10:57:43;;;;;;;8.43;2.77;;;2.70;82.70;;;;;;4893745;29;20208;-65
2020/12/26 11:00:13;;;;;;;1.37;1.17;;;2.80;82.70;;;;;;4894721;29;20204;-69
2020/12/26 11:02:39;;;;;;;3.27;2.37;;;2.80;82.70;;;;;;4898781;29;20191;-66
2020/12/26 11:05:05;;;;;;;7.17;4.83;;;2.90;82.80;;;;;;4898734;29;20694;-65
2020/12/26 11:07:35;;;;;;;6.53;3.83;;;3.00;82.40;;;;;;4899530;23;20239;-65
2020/12/26 11:10:00;;;;;;;3.83;3.47;;;2.90;82.80;;;;;;4898789;29;20735;-66
2020/12/26 11:12:26;;;;;;;5.10;4.43;;;2.90;82.70;;;;;;4903196;23;20250;-66
2020/12/26 11:14:52;;;;;;;3.50;3.17;;;3.00;81.70;;;;;;4887139;29;20200;-65
2020/12/26 11:17:18;;;;;;;2.87;2.60;;;2.90;82.10;;;;;;4900384;23;20589;-66
2020/12/26 11:19:43;;;;;;;4.70;2.80;;;;;;;;;;4898771;29;20663;-65
2020/12/26 11:22:09;;;;;;;4.20;3.17;;;2.90;82.80;;;;;;4898654;29;20184;-65
2020/12/26 11:24:35;;;;;;;4.13;2.67;;;3.00;82.90;;;;;;4886915;29;20196;-65
2020/12/26 11:27:01;;;;;;;7.87;4.60;;;;;;;;;;4886242;29;20200;-65
2020/12/26 11:29:27;;;;;;;15.87;5.00;;;3.00;82.70;;;;;;4897323;23;20211;-65
2020/12/26 11:31:54;;;;;;;7.10;4.47;;;;;;;;;;4892450;23;20248;-66
2020/12/26 11:34:20;;;;;;;7.80;3.80;;;;;;;;;;4894803;29;20220;-66
2020/12/26 11:36:46;;;;;;;1.60;1.50;;;;;;;;;;4896600;29;20745;-67
2020/12/26 11:39:12;;;;;;;5.03;2.93;;;;;;;;;;4896672;29;20192;-65
2020/12/26 11:41:38;;;;;;;6.50;4.37;;;;;;;;;;4898605;29;20314;-65
2020/12/26 11:44:04;;;;;;;4.17;3.30;;;3.40;80.90;;;;;;4904317;23;20654;-65
2020/12/26 11:46:30;;;;;;;8.57;5.03;;;;;;;;;;4892551;29;20188;-65
2020/12/26 11:48:56;;;;;;;7.37;3.90;;;;;;;;;;4890987;29;20195;-65
2020/12/26 11:51:22;;;;;;;6.37;4.37;;;3.50;80.40;;;;;;4879496;29;20231;-66
2020/12/26 11:53:48;;;;;;;6.37;4.83;;;3.50;80.20;;;;;;4896033;29;20665;-66
2020/12/26 11:56:15;;;;;;;7.57;5.20;;;3.60;80.20;;;;;;4893236;29;20202;-66
2020/12/26 11:58:42;;;;;;;3.37;1.30;;;3.50;79.30;;;;;;4899929;23;20255;-65
2020/12/26 12:01:08;;;;;;;3.87;3.27;;;3.50;79.60;;;;;;4897452;29;20191;-64
2020/12/26 12:03:34;;;;;;;7.60;4.37;;;3.70;80.10;;;;;;4894719;29;20199;-66
2020/12/26 12:06:01;;;;;;;2.33;2.13;;;3.60;79.40;;;;;;4908187;29;20520;-65
2020/12/26 12:08:26;;;;;;;8.20;4.70;;;3.70;79.90;;;;;;4900006;23;20236;-65
2020/12/26 12:10:52;;;;;;;6.93;4.57;;;3.70;79.80;;;;;;4893947;29;20226;-65
2020/12/26 12:13:18;;;;;;;9.57;4.73;;;3.60;80.80;;;;;;4891080;29;20203;-66
2020/12/26 12:15:44;;;;;;;1.90;1.73;;;3.60;80.40;;;;;;4916539;23;20283;-64
2020/12/26 12:18:09;;;;;;;6.20;3.53;;;3.60;80.90;;;;;;4912837;29;20511;-64
2020/12/26 12:20:35;;;;;;;5.80;3.10;;;3.60;80.70;;;;;;4908630;29;21781;-63
2020/12/26 12:23:01;;;;;;;6.63;4.43;;;3.60;81.10;;;;;;4910690;29;20199;-63
2020/12/26 12:25:28;;;;;;;4.20;3.07;;;3.60;80.00;;;;;;4909671;29;20195;-62
2020/12/26 12:27:54;;;;;;;6.87;4.63;;;3.70;80.40;;;;;;4909711;29;20203;-62
2020/12/26 12:30:21;;;;;;;5.30;3.80;;;3.60;80.00;;;;;;4907379;29;20221;-62
2020/12/26 12:32:47;;;;;;;4.77;4.07;;;;;;;;;;4905895;29;20199;-66
2020/12/26 12:35:13;;;;;;;5.90;3.70;;;3.70;79.90;;;;;;4898834;23;20244;-68
2020/12/26 12:37:39;;;;;;;4.87;3.70;;;;;;;;;;4886457;23;20242;-67
2020/12/26 12:40:06;;;;;;;6.23;3.90;;;3.80;78.80;;;;;;4888818;29;20220;-66
2020/12/26 12:42:32;;;;;;;5.87;3.67;;;3.80;78.60;;;;;;4890181;23;20243;-63
2020/12/26 12:44:58;;;;;;;4.83;3.90;;;3.80;79.00;;;;;;4885780;29;20481;-63
2020/12/26 12:47:25;;;;;;;4.63;3.00;;;3.80;78.10;;;;;;4887318;29;20220;-64
2020/12/26 12:49:51;;;;;;;3.80;3.50;;;3.90;78.70;;;;;;4895623;29;20282;-62
2020/12/26 12:52:20;;;;;;;5.43;3.67;;;3.90;78.00;;;;;;4899808;29;20648;-63
2020/12/26 12:54:46;;;;;;;5.80;3.40;;;3.90;77.80;;;;;;4899916;29;20184;-63
2020/12/26 12:57:12;;;;;;;3.80;3.40;;;;;;;;;;4899712;29;20191;-63
2020/12/26 12:59:38;;;;;;;4.73;2.60;;;4.00;76.90;;;;;;4898719;29;20188;-63
2020/12/26 13:02:04;;;;;;;6.20;2.73;;;4.00;75.90;;;;;;4882332;29;20204;-65
2020/12/26 13:04:30;;;;;;;4.40;3.07;;;4.00;76.40;;;;;;4898272;29;20216;-63
2020/12/26 13:06:56;;;;;;;4.50;3.73;;;4.10;75.70;;;;;;4879926;29;20529;-63
2020/12/26 13:09:21;;;;;;;3.93;2.77;;;4.00;74.70;;;;;;4880811;29;20652;-64
2020/12/26 13:11:47;;;;;;;7.67;2.70;;;4.00;74.80;;;;;;4880771;29;20299;-61
2020/12/26 13:14:13;;;;;;;2.47;2.27;;;4.00;75.50;;;;;;4880513;29;20249;-66
2020/12/26 13:16:39;;;;;;;5.33;2.47;;;4.00;75.60;;;;;;4943346;23;20258;-65
2020/12/26 13:19:05;;;;;;;3.90;2.70;;;;;;;;;;5051492;23;20588;-66